sensor_id;sensor_type;location;lat;lon;timestamp;temperature;humidity
43581;DHT22;29175;51.030;4.606;2023-04-03T00:00:32;4.20;99.90
43581;DHT22;29175;51.030;4.606;2023-04-03T00:02:58;4.30;99.90
43581;DHT22;29175;51.030;4.606;2023-04-03T00:05:24;4.20;99.90
43581;DHT22;29175;51.030;4.606;2023-04-03T00:07:50;4.20;99.90
43581;DHT22;29175;51.030;4.606;2023-04-03T00:10:16;4.10;99.90
43581;DHT22;29175;51.030;4.606;2023-04-03T00:12:42;4.10;99.90
43581;DHT22;29175;51.030;4.606;2023-04-03T00:15:08;3.90;99.90
43581;DHT22;29175;51.030;4.606;2023-04-03T00:17:34;3.90;99.90
43581;DHT22;29175;51.030;4.606;2023-04-03T00:20:00;4.00;99.90
43581;DHT22;29175;51.030;4.606;2023-04-03T00:22:26;4.00;99.90
43581;DHT22;29175;51.030;4.606;2023-04-03T00:24:54;4.00;99.90
43581;DHT22;29175;51.030;4.606;2023-04-03T00:27:20;4.00;99.90
43581;DHT22;29175;51.030;4.606;2023-04-03T00:29:46;4.10;99.90
43581;DHT22;29175;51.030;4.606;2023-04-03T00:32:12;4.20;99.90
43581;DHT22;29175;51.030;4.606;2023-04-03T00:34:38;4.20;99.90
43581;DHT22;29175;51.030;4.606;2023-04-03T00:37:04;4.10;99.90
43581;DHT22;29175;51.030;4.606;2023-04-03T00:39:30;4.20;99.90
43581;DHT22;29175;51.030;4.606;2023-04-03T00:41:55;4.10;99.90
43581;DHT22;29175;51.030;4.606;2023-04-03T00:47:08;4.10;99.90
43581;DHT22;29175;51.030;4.606;2023-04-03T00:49:37;4.10;99.90
43581;DHT22;29175;51.030;4.606;2023-04-03T00:52:06;4.10;99.90
43581;DHT22;29175;51.030;4.606;2023-04-03T00:54:33;4.10;99.90
43581;DHT22;29175;51.030;4.606;2023-04-03T00:57:00;4.10;99.90
43581;DHT22;29175;51.030;4.606;2023-04-03T00:59:30;4.00;99.90
43581;DHT22;29175;51.030;4.606;2023-04-03T01:01:58;3.90;99.90
43581;DHT22;29175;51.030;4.606;2023-04-03T01:04:35;3.90;99.90
43581;DHT22;29175;51.030;4.606;2023-04-03T01:09:34;3.80;99.90
43581;DHT22;29175;51.030;4.606;2023-04-03T01:12:37;3.70;99.90
43581;DHT22;29175;51.030;4.606;2023-04-03T01:15:07;3.70;99.90
43581;DHT22;29175;51.030;4.606;2023-04-03T01:25:41;3.90;99.90
43581;DHT22;29175;51.030;4.606;2023-04-03T01:28:09;3.80;99.90
43581;DHT22;29175;51.030;4.606;2023-04-03T01:33:30;3.80;99.90
43581;DHT22;29175;51.030;4.606;2023-04-03T01:35:55;3.80;99.90
43581;DHT22;29175;51.030;4.606;2023-04-03T01:38:21;3.70;99.90
43581;DHT22;29175;51.030;4.606;2023-04-03T01:40:47;3.60;99.90
43581;DHT22;29175;51.030;4.606;2023-04-03T01:43:13;3.70;99.90
43581;DHT22;29175;51.030;4.606;2023-04-03T01:45:39;3.80;99.90
43581;DHT22;29175;51.030;4.606;2023-04-03T01:48:04;3.70;99.90
43581;DHT22;29175;51.030;4.606;2023-04-03T01:50:30;3.80;99.90
43581;DHT22;29175;51.030;4.606;2023-04-03T01:52:56;3.80;99.90
43581;DHT22;29175;51.030;4.606;2023-04-03T01:55:22;3.70;99.90
43581;DHT22;29175;51.030;4.606;2023-04-03T01:57:48;3.70;99.90
43581;DHT22;29175;51.030;4.606;2023-04-03T02:00:14;3.60;99.90
43581;DHT22;29175;51.030;4.606;2023-04-03T02:02:40;3.60;99.90
43581;DHT22;29175;51.030;4.606;2023-04-03T02:05:06;3.70;99.90
43581;DHT22;29175;51.030;4.606;2023-04-03T02:07:32;3.70;99.90
43581;DHT22;29175;51.030;4.606;2023-04-03T02:09:57;3.70;99.90
43581;DHT22;29175;51.030;4.606;2023-04-03T02:12:23;3.80;99.90
43581;DHT22;29175;51.030;4.606;2023-04-03T02:14:49;3.90;99.90
43581;DHT22;29175;51.030;4.606;2023-04-03T02:17:15;3.80;99.90
43581;DHT22;29175;51.030;4.606;2023-04-03T02:19:41;3.90;99.90
43581;DHT22;29175;51.030;4.606;2023-04-03T02:22:07;3.70;99.90
43581;DHT22;29175;51.030;4.606;2023-04-03T02:24:32;3.60;99.90
43581;DHT22;29175;51.030;4.606;2023-04-03T02:26:59;3.40;99.90
43581;DHT22;29175;51.030;4.606;2023-04-03T02:29:25;3.50;99.90
43581;DHT22;29175;51.030;4.606;2023-04-03T02:31:51;3.40;99.90
43581;DHT22;29175;51.030;4.606;2023-04-03T02:34:17;3.40;99.90
43581;DHT22;29175;51.030;4.606;2023-04-03T02:36:43;3.40;99.90
43581;DHT22;29175;51.030;4.606;2023-04-03T02:39:09;3.40;99.90
43581;DHT22;29175;51.030;4.606;2023-04-03T02:41:35;3.30;99.90
43581;DHT22;29175;51.030;4.606;2023-04-03T02:44:05;3.40;99.90
43581;DHT22;29175;51.030;4.606;2023-04-03T02:46:32;3.40;99.90
43581;DHT22;29175;51.030;4.606;2023-04-03T02:48:58;3.40;99.90
43581;DHT22;29175;51.030;4.606;2023-04-03T02:51:24;3.20;99.90
43581;DHT22;29175;51.030;4.606;2023-04-03T02:53:50;3.50;99.90
43581;DHT22;29175;51.030;4.606;2023-04-03T02:56:16;3.40;99.90
43581;DHT22;29175;51.030;4.606;2023-04-03T02:58:43;3.30;99.90
43581;DHT22;29175;51.030;4.606;2023-04-03T03:01:10;3.30;99.90
43581;DHT22;29175;51.030;4.606;2023-04-03T03:03:36;3.30;99.90
43581;DHT22;29175;51.030;4.606;2023-04-03T03:08:32;3.20;99.90
43581;DHT22;29175;51.030;4.606;2023-04-03T03:10:58;3.30;99.90
43581;DHT22;29175;51.030;4.606;2023-04-03T03:13:24;3.20;99.90
43581;DHT22;29175;51.030;4.606;2023-04-03T03:15:50;3.30;99.90
43581;DHT22;29175;51.030;4.606;2023-04-03T03:18:15;3.30;99.90
43581;DHT22;29175;51.030;4.606;2023-04-03T03:20:41;3.20;99.90
43581;DHT22;29175;51.030;4.606;2023-04-03T03:23:07;3.10;99.90
43581;DHT22;29175;51.030;4.606;2023-04-03T03:25:33;3.00;99.90
43581;DHT22;29175;51.030;4.606;2023-04-03T03:27:58;3.10;99.90
43581;DHT22;29175;51.030;4.606;2023-04-03T03:30:24;2.90;99.90
43581;DHT22;29175;51.030;4.606;2023-04-03T03:32:50;3.10;99.90
43581;DHT22;29175;51.030;4.606;2023-04-03T03:35:16;3.10;99.90
43581;DHT22;29175;51.030;4.606;2023-04-03T03:37:42;2.90;99.90
43581;DHT22;29175;51.030;4.606;2023-04-03T03:40:08;3.00;99.90
43581;DHT22;29175;51.030;4.606;2023-04-03T03:42:34;2.80;99.90
43581;DHT22;29175;51.030;4.606;2023-04-03T03:45:00;2.90;99.90
43581;DHT22;29175;51.030;4.606;2023-04-03T03:47:26;2.90;99.90
43581;DHT22;29175;51.030;4.606;2023-04-03T03:49:52;2.80;99.90
43581;DHT22;29175;51.030;4.606;2023-04-03T03:52:18;2.90;99.90
43581;DHT22;29175;51.030;4.606;2023-04-03T03:54:44;2.90;99.90
43581;DHT22;29175;51.030;4.606;2023-04-03T03:57:10;2.90;99.90
43581;DHT22;29175;51.030;4.606;2023-04-03T03:59:36;2.90;99.90
43581;DHT22;29175;51.030;4.606;2023-04-03T04:02:01;2.90;99.90
43581;DHT22;29175;51.030;4.606;2023-04-03T04:04:27;3.00;99.90
43581;DHT22;29175;51.030;4.606;2023-04-03T04:06:53;2.90;99.90
43581;DHT22;29175;51.030;4.606;2023-04-03T04:09:19;2.90;99.90
43581;DHT22;29175;51.030;4.606;2023-04-03T04:11:44;2.80;99.90
43581;DHT22;29175;51.030;4.606;2023-04-03T04:14:10;2.80;99.90
43581;DHT22;29175;51.030;4.606;2023-04-03T04:16:37;2.80;99.90
43581;DHT22;29175;51.030;4.606;2023-04-03T04:19:03;2.70;99.90
43581;DHT22;29175;51.030;4.606;2023-04-03T04:21:29;2.70;99.90
43581;DHT22;29175;51.030;4.606;2023-04-03T04:23:55;2.70;99.90
43581;DHT22;29175;51.030;4.606;2023-04-03T04:26:20;2.70;99.90
43581;DHT22;29175;51.030;4.606;2023-04-03T04:28:46;2.70;99.90
43581;DHT22;29175;51.030;4.606;2023-04-03T04:31:12;2.70;99.90
43581;DHT22;29175;51.030;4.606;2023-04-03T04:33:37;2.70;99.90
43581;DHT22;29175;51.030;4.606;2023-04-03T04:36:03;2.80;99.90
43581;DHT22;29175;51.030;4.606;2023-04-03T04:38:29;2.80;99.90
43581;DHT22;29175;51.030;4.606;2023-04-03T04:40:55;2.80;99.90
43581;DHT22;29175;51.030;4.606;2023-04-03T04:43:20;2.80;99.90
43581;DHT22;29175;51.030;4.606;2023-04-03T04:45:46;2.70;99.90
43581;DHT22;29175;51.030;4.606;2023-04-03T04:48:12;2.80;99.90
43581;DHT22;29175;51.030;4.606;2023-04-03T04:50:38;2.80;99.90
43581;DHT22;29175;51.030;4.606;2023-04-03T04:53:03;2.80;99.90
43581;DHT22;29175;51.030;4.606;2023-04-03T04:55:30;2.80;99.90
43581;DHT22;29175;51.030;4.606;2023-04-03T04:57:55;2.80;99.90
43581;DHT22;29175;51.030;4.606;2023-04-03T05:00:21;2.80;99.90
43581;DHT22;29175;51.030;4.606;2023-04-03T05:02:47;2.80;99.90
43581;DHT22;29175;51.030;4.606;2023-04-03T05:05:12;2.80;99.90
43581;DHT22;29175;51.030;4.606;2023-04-03T05:07:38;2.70;99.90
43581;DHT22;29175;51.030;4.606;2023-04-03T05:10:04;2.70;99.90
43581;DHT22;29175;51.030;4.606;2023-04-03T05:12:31;2.70;99.90
43581;DHT22;29175;51.030;4.606;2023-04-03T05:14:57;2.70;99.90
43581;DHT22;29175;51.030;4.606;2023-04-03T05:17:22;2.70;99.90
43581;DHT22;29175;51.030;4.606;2023-04-03T05:19:48;2.70;99.90
43581;DHT22;29175;51.030;4.606;2023-04-03T05:22:14;2.60;99.90
43581;DHT22;29175;51.030;4.606;2023-04-03T05:24:40;2.60;99.90
43581;DHT22;29175;51.030;4.606;2023-04-03T05:27:06;2.70;99.90
43581;DHT22;29175;51.030;4.606;2023-04-03T05:29:31;2.70;99.90
43581;DHT22;29175;51.030;4.606;2023-04-03T05:31:57;2.70;99.90
43581;DHT22;29175;51.030;4.606;2023-04-03T05:34:23;2.70;99.90
43581;DHT22;29175;51.030;4.606;2023-04-03T05:36:48;2.70;99.90
43581;DHT22;29175;51.030;4.606;2023-04-03T05:39:14;2.70;99.90
43581;DHT22;29175;51.030;4.606;2023-04-03T05:41:40;2.60;99.90
43581;DHT22;29175;51.030;4.606;2023-04-03T05:44:06;2.60;99.90
43581;DHT22;29175;51.030;4.606;2023-04-03T05:46:31;2.80;99.90
43581;DHT22;29175;51.030;4.606;2023-04-03T05:48:57;2.70;99.90
43581;DHT22;29175;51.030;4.606;2023-04-03T05:51:27;2.90;99.90
43581;DHT22;29175;51.030;4.606;2023-04-03T05:54:39;2.90;99.90
43581;DHT22;29175;51.030;4.606;2023-04-03T05:56:48;2.90;99.90
43581;DHT22;29175;51.030;4.606;2023-04-03T05:59:14;2.90;99.90
43581;DHT22;29175;51.030;4.606;2023-04-03T06:01:40;2.80;99.90
43581;DHT22;29175;51.030;4.606;2023-04-03T06:04:06;3.10;99.90
43581;DHT22;29175;51.030;4.606;2023-04-03T06:09:12;3.10;99.90
43581;DHT22;29175;51.030;4.606;2023-04-03T06:11:38;3.20;99.90
43581;DHT22;29175;51.030;4.606;2023-04-03T06:14:04;3.30;99.90
43581;DHT22;29175;51.030;4.606;2023-04-03T06:16:30;3.70;99.90
43581;DHT22;29175;51.030;4.606;2023-04-03T06:18:55;3.90;99.90
43581;DHT22;29175;51.030;4.606;2023-04-03T06:21:22;4.20;99.90
43581;DHT22;29175;51.030;4.606;2023-04-03T06:23:48;4.40;99.90
43581;DHT22;29175;51.030;4.606;2023-04-03T06:26:13;4.80;99.90
43581;DHT22;29175;51.030;4.606;2023-04-03T06:28:40;5.90;99.90
43581;DHT22;29175;51.030;4.606;2023-04-03T06:31:05;7.40;99.90
43581;DHT22;29175;51.030;4.606;2023-04-03T06:33:31;8.60;99.90
43581;DHT22;29175;51.030;4.606;2023-04-03T06:35:58;9.30;99.90
43581;DHT22;29175;51.030;4.606;2023-04-03T06:38:24;9.70;99.90
43581;DHT22;29175;51.030;4.606;2023-04-03T06:40:50;10.80;99.90
43581;DHT22;29175;51.030;4.606;2023-04-03T06:43:17;11.50;99.90
43581;DHT22;29175;51.030;4.606;2023-04-03T06:45:42;12.00;99.90
43581;DHT22;29175;51.030;4.606;2023-04-03T06:48:08;12.50;99.80
43581;DHT22;29175;51.030;4.606;2023-04-03T06:50:34;12.90;98.40
43581;DHT22;29175;51.030;4.606;2023-04-03T06:53:00;12.30;99.20
43581;DHT22;29175;51.030;4.606;2023-04-03T06:55:26;12.10;98.70
43581;DHT22;29175;51.030;4.606;2023-04-03T06:57:52;12.60;98.20
43581;DHT22;29175;51.030;4.606;2023-04-03T07:00:18;13.60;97.90
43581;DHT22;29175;51.030;4.606;2023-04-03T07:02:44;13.60;95.50
43581;DHT22;29175;51.030;4.606;2023-04-03T07:05:11;13.80;96.40
43581;DHT22;29175;51.030;4.606;2023-04-03T07:07:37;13.60;96.30
43581;DHT22;29175;51.030;4.606;2023-04-03T07:10:05;13.90;97.00
43581;DHT22;29175;51.030;4.606;2023-04-03T07:12:31;14.90;95.30
43581;DHT22;29175;51.030;4.606;2023-04-03T07:14:58;14.40;94.60
43581;DHT22;29175;51.030;4.606;2023-04-03T07:17:24;14.40;95.20
43581;DHT22;29175;51.030;4.606;2023-04-03T07:19:50;14.90;94.30
43581;DHT22;29175;51.030;4.606;2023-04-03T07:22:17;13.50;95.30
43581;DHT22;29175;51.030;4.606;2023-04-03T07:24:43;12.70;95.70
43581;DHT22;29175;51.030;4.606;2023-04-03T07:27:09;12.70;96.20
43581;DHT22;29175;51.030;4.606;2023-04-03T07:29:35;13.10;97.60
43581;DHT22;29175;51.030;4.606;2023-04-03T07:32:02;13.90;95.80
43581;DHT22;29175;51.030;4.606;2023-04-03T07:34:28;14.10;93.90
43581;DHT22;29175;51.030;4.606;2023-04-03T07:36:54;13.90;94.40
43581;DHT22;29175;51.030;4.606;2023-04-03T07:39:20;13.70;94.70
43581;DHT22;29175;51.030;4.606;2023-04-03T07:41:46;14.40;94.50
43581;DHT22;29175;51.030;4.606;2023-04-03T07:44:12;13.90;94.30
43581;DHT22;29175;51.030;4.606;2023-04-03T07:46:37;14.10;94.90
43581;DHT22;29175;51.030;4.606;2023-04-03T07:49:04;14.30;94.90
43581;DHT22;29175;51.030;4.606;2023-04-03T07:51:29;15.70;93.60
43581;DHT22;29175;51.030;4.606;2023-04-03T07:53:56;15.90;92.70
43581;DHT22;29175;51.030;4.606;2023-04-03T07:56:21;16.80;90.50
43581;DHT22;29175;51.030;4.606;2023-04-03T07:58:48;16.20;91.80
43581;DHT22;29175;51.030;4.606;2023-04-03T08:01:14;16.60;90.90
43581;DHT22;29175;51.030;4.606;2023-04-03T08:03:39;18.30;91.10
43581;DHT22;29175;51.030;4.606;2023-04-03T08:06:06;18.40;90.00
43581;DHT22;29175;51.030;4.606;2023-04-03T08:08:33;19.00;86.70
43581;DHT22;29175;51.030;4.606;2023-04-03T08:11:01;18.90;86.60
43581;DHT22;29175;51.030;4.606;2023-04-03T08:13:28;17.50;87.90
43581;DHT22;29175;51.030;4.606;2023-04-03T08:15:55;16.50;90.60
43581;DHT22;29175;51.030;4.606;2023-04-03T08:18:23;17.50;90.30
43581;DHT22;29175;51.030;4.606;2023-04-03T08:20:50;18.40;86.50
43581;DHT22;29175;51.030;4.606;2023-04-03T08:23:17;19.30;87.10
43581;DHT22;29175;51.030;4.606;2023-04-03T08:25:43;20.50;85.20
43581;DHT22;29175;51.030;4.606;2023-04-03T08:28:12;21.50;84.30
43581;DHT22;29175;51.030;4.606;2023-04-03T08:30:41;22.60;82.30
43581;DHT22;29175;51.030;4.606;2023-04-03T08:33:08;21.70;81.50
43581;DHT22;29175;51.030;4.606;2023-04-03T08:35:38;22.60;79.80
43581;DHT22;29175;51.030;4.606;2023-04-03T08:38:04;23.30;77.10
43581;DHT22;29175;51.030;4.606;2023-04-03T08:40:30;23.60;77.80
43581;DHT22;29175;51.030;4.606;2023-04-03T08:45:29;22.60;76.90
43581;DHT22;29175;51.030;4.606;2023-04-03T08:50:41;21.50;75.80
43581;DHT22;29175;51.030;4.606;2023-04-03T08:53:20;22.60;77.70
43581;DHT22;29175;51.030;4.606;2023-04-03T08:55:49;23.30;73.40
43581;DHT22;29175;51.030;4.606;2023-04-03T08:58:30;23.00;72.60
43581;DHT22;29175;51.030;4.606;2023-04-03T09:01:03;22.70;72.80
43581;DHT22;29175;51.030;4.606;2023-04-03T09:03:38;22.00;74.30
43581;DHT22;29175;51.030;4.606;2023-04-03T09:06:07;21.00;75.40
43581;DHT22;29175;51.030;4.606;2023-04-03T09:09:14;21.10;75.70
43581;DHT22;29175;51.030;4.606;2023-04-03T09:17:14;22.90;74.10
43581;DHT22;29175;51.030;4.606;2023-04-03T09:19:51;21.70;71.60
43581;DHT22;29175;51.030;4.606;2023-04-03T09:22:28;23.00;75.30
43581;DHT22;29175;51.030;4.606;2023-04-03T09:25:01;21.60;71.60
43581;DHT22;29175;51.030;4.606;2023-04-03T09:27:28;20.70;76.20
43581;DHT22;29175;51.030;4.606;2023-04-03T09:29:55;20.90;76.80
43581;DHT22;29175;51.030;4.606;2023-04-03T09:32:31;19.90;74.80
43581;DHT22;29175;51.030;4.606;2023-04-03T09:37:52;20.10;75.80
43581;DHT22;29175;51.030;4.606;2023-04-03T09:42:55;21.90;75.80
43581;DHT22;29175;51.030;4.606;2023-04-03T09:45:32;21.20;73.50
43581;DHT22;29175;51.030;4.606;2023-04-03T09:56:00;23.30;73.60
43581;DHT22;29175;51.030;4.606;2023-04-03T09:58:38;24.80;69.90
43581;DHT22;29175;51.030;4.606;2023-04-03T10:01:06;23.50;68.40
43581;DHT22;29175;51.030;4.606;2023-04-03T10:03:36;24.20;71.80
43581;DHT22;29175;51.030;4.606;2023-04-03T10:06:22;22.90;67.30
43581;DHT22;29175;51.030;4.606;2023-04-03T10:12:04;22.20;70.20
43581;DHT22;29175;51.030;4.606;2023-04-03T10:14:32;22.80;68.50
43581;DHT22;29175;51.030;4.606;2023-04-03T10:30:51;21.10;68.50
43581;DHT22;29175;51.030;4.606;2023-04-03T10:36:17;20.60;67.20
43581;DHT22;29175;51.030;4.606;2023-04-03T10:41:39;18.80;74.60
43581;DHT22;29175;51.030;4.606;2023-04-03T10:47:20;18.60;73.80
43581;DHT22;29175;51.030;4.606;2023-04-03T10:50:26;19.00;75.80
43581;DHT22;29175;51.030;4.606;2023-04-03T10:52:47;18.20;71.00
43581;DHT22;29175;51.030;4.606;2023-04-03T10:57:47;18.30;70.00
43581;DHT22;29175;51.030;4.606;2023-04-03T11:00:18;17.10;71.30
43581;DHT22;29175;51.030;4.606;2023-04-03T11:02:54;17.10;75.70
43581;DHT22;29175;51.030;4.606;2023-04-03T11:07:57;17.30;71.00
43581;DHT22;29175;51.030;4.606;2023-04-03T11:10:42;16.60;72.30
43581;DHT22;29175;51.030;4.606;2023-04-03T11:13:11;17.90;71.90
43581;DHT22;29175;51.030;4.606;2023-04-03T11:15:38;19.40;69.00
43581;DHT22;29175;51.030;4.606;2023-04-03T11:18:14;19.70;67.60
43581;DHT22;29175;51.030;4.606;2023-04-03T11:20:47;20.00;69.30
43581;DHT22;29175;51.030;4.606;2023-04-03T11:23:22;20.80;65.20
43581;DHT22;29175;51.030;4.606;2023-04-03T11:25:53;21.80;66.50
43581;DHT22;29175;51.030;4.606;2023-04-03T11:28:19;23.50;61.90
43581;DHT22;29175;51.030;4.606;2023-04-03T11:31:09;22.40;61.90
43581;DHT22;29175;51.030;4.606;2023-04-03T11:36:28;18.10;67.90
43581;DHT22;29175;51.030;4.606;2023-04-03T11:38:58;17.00;68.90
43581;DHT22;29175;51.030;4.606;2023-04-03T11:41:30;16.70;66.80
43581;DHT22;29175;51.030;4.606;2023-04-03T11:44:35;14.30;67.00
43581;DHT22;29175;51.030;4.606;2023-04-03T11:47:10;14.60;68.50
43581;DHT22;29175;51.030;4.606;2023-04-03T11:50:32;14.00;67.20
43581;DHT22;29175;51.030;4.606;2023-04-03T12:14:04;13.90;68.70
43581;DHT22;29175;51.030;4.606;2023-04-03T12:16:45;13.20;69.00
43581;DHT22;29175;51.030;4.606;2023-04-03T12:26:51;12.40;76.20
43581;DHT22;29175;51.030;4.606;2023-04-03T12:43:28;12.30;75.90
43581;DHT22;29175;51.030;4.606;2023-04-03T12:46:09;11.90;74.70
43581;DHT22;29175;51.030;4.606;2023-04-03T12:48:50;11.80;77.00
43581;DHT22;29175;51.030;4.606;2023-04-03T12:51:37;11.80;75.70
43581;DHT22;29175;51.030;4.606;2023-04-03T12:54:20;11.60;75.20
43581;DHT22;29175;51.030;4.606;2023-04-03T12:56:47;11.50;75.70
43581;DHT22;29175;51.030;4.606;2023-04-03T12:59:23;11.50;77.60
43581;DHT22;29175;51.030;4.606;2023-04-03T13:02:00;11.30;77.20
43581;DHT22;29175;51.030;4.606;2023-04-03T13:04:31;11.40;77.70
43581;DHT22;29175;51.030;4.606;2023-04-03T13:06:57;11.40;78.00
43581;DHT22;29175;51.030;4.606;2023-04-03T13:11:56;11.90;81.80
43581;DHT22;29175;51.030;4.606;2023-04-03T13:14:25;12.00;80.50
43581;DHT22;29175;51.030;4.606;2023-04-03T13:16:58;12.00;78.30
43581;DHT22;29175;51.030;4.606;2023-04-03T13:19:26;11.90;80.00
43581;DHT22;29175;51.030;4.606;2023-04-03T13:21:59;11.70;77.90
43581;DHT22;29175;51.030;4.606;2023-04-03T13:24:27;11.60;81.20
43581;DHT22;29175;51.030;4.606;2023-04-03T13:26:55;11.80;79.00
43581;DHT22;29175;51.030;4.606;2023-04-03T13:29:27;11.40;82.00
43581;DHT22;29175;51.030;4.606;2023-04-03T13:31:55;11.60;79.20
43581;DHT22;29175;51.030;4.606;2023-04-03T13:34:23;11.70;78.20
43581;DHT22;29175;51.030;4.606;2023-04-03T13:36:58;11.60;78.70
43581;DHT22;29175;51.030;4.606;2023-04-03T13:39:31;11.60;80.10
43581;DHT22;29175;51.030;4.606;2023-04-03T13:42:00;11.70;78.60
43581;DHT22;29175;51.030;4.606;2023-04-03T13:44:29;11.30;79.00
43581;DHT22;29175;51.030;4.606;2023-04-03T13:47:01;11.60;83.20
43581;DHT22;29175;51.030;4.606;2023-04-03T13:49:46;11.60;80.20
43581;DHT22;29175;51.030;4.606;2023-04-03T13:52:32;11.80;80.00
43581;DHT22;29175;51.030;4.606;2023-04-03T13:58:19;12.00;78.70
43581;DHT22;29175;51.030;4.606;2023-04-03T14:00:49;12.20;83.10
43581;DHT22;29175;51.030;4.606;2023-04-03T14:03:39;12.10;76.20
43581;DHT22;29175;51.030;4.606;2023-04-03T14:06:06;11.70;78.50
43581;DHT22;29175;51.030;4.606;2023-04-03T14:08:32;11.70;74.70
43581;DHT22;29175;51.030;4.606;2023-04-03T14:10:58;11.30;75.90
43581;DHT22;29175;51.030;4.606;2023-04-03T14:13:24;11.30;78.10
43581;DHT22;29175;51.030;4.606;2023-04-03T14:15:50;11.50;77.80
43581;DHT22;29175;51.030;4.606;2023-04-03T14:18:19;11.80;76.80
43581;DHT22;29175;51.030;4.606;2023-04-03T14:20:49;11.80;73.40
43581;DHT22;29175;51.030;4.606;2023-04-03T14:23:15;11.80;74.90
43581;DHT22;29175;51.030;4.606;2023-04-03T14:25:41;11.80;74.90
43581;DHT22;29175;51.030;4.606;2023-04-03T14:28:19;11.80;73.70
43581;DHT22;29175;51.030;4.606;2023-04-03T14:30:47;11.70;74.00
43581;DHT22;29175;51.030;4.606;2023-04-03T14:33:16;11.60;75.70
43581;DHT22;29175;51.030;4.606;2023-04-03T14:35:42;11.70;74.60
43581;DHT22;29175;51.030;4.606;2023-04-03T14:38:25;11.80;72.90
43581;DHT22;29175;51.030;4.606;2023-04-03T14:40:52;11.50;71.80
43581;DHT22;29175;51.030;4.606;2023-04-03T14:43:19;11.50;73.70
43581;DHT22;29175;51.030;4.606;2023-04-03T14:45:48;11.40;75.60
43581;DHT22;29175;51.030;4.606;2023-04-03T14:48:23;11.50;76.10
43581;DHT22;29175;51.030;4.606;2023-04-03T14:50:50;11.10;74.30
43581;DHT22;29175;51.030;4.606;2023-04-03T14:53:18;11.10;73.90
43581;DHT22;29175;51.030;4.606;2023-04-03T14:55:48;11.00;74.00
43581;DHT22;29175;51.030;4.606;2023-04-03T14:58:17;10.80;74.30
43581;DHT22;29175;51.030;4.606;2023-04-03T15:00:44;10.90;76.50
43581;DHT22;29175;51.030;4.606;2023-04-03T15:03:17;11.00;75.50
43581;DHT22;29175;51.030;4.606;2023-04-03T15:05:44;11.30;73.10
43581;DHT22;29175;51.030;4.606;2023-04-03T15:08:22;11.30;73.80
43581;DHT22;29175;51.030;4.606;2023-04-03T15:10:49;11.40;74.60
43581;DHT22;29175;51.030;4.606;2023-04-03T15:13:15;11.40;74.50
43581;DHT22;29175;51.030;4.606;2023-04-03T15:15:42;11.10;76.70
43581;DHT22;29175;51.030;4.606;2023-04-03T15:18:15;11.20;73.50
43581;DHT22;29175;51.030;4.606;2023-04-03T15:20:42;11.30;75.40
43581;DHT22;29175;51.030;4.606;2023-04-03T15:23:10;11.50;76.10
43581;DHT22;29175;51.030;4.606;2023-04-03T15:25:36;11.40;75.00
43581;DHT22;29175;51.030;4.606;2023-04-03T15:28:02;11.40;77.30
43581;DHT22;29175;51.030;4.606;2023-04-03T15:30:29;11.20;73.60
43581;DHT22;29175;51.030;4.606;2023-04-03T15:32:55;11.20;74.50
43581;DHT22;29175;51.030;4.606;2023-04-03T15:35:21;11.00;78.20
43581;DHT22;29175;51.030;4.606;2023-04-03T15:37:47;11.20;74.20
43581;DHT22;29175;51.030;4.606;2023-04-03T15:40:14;10.90;76.60
43581;DHT22;29175;51.030;4.606;2023-04-03T15:42:40;10.80;78.90
43581;DHT22;29175;51.030;4.606;2023-04-03T15:45:07;10.80;75.40
43581;DHT22;29175;51.030;4.606;2023-04-03T15:47:33;10.80;79.30
43581;DHT22;29175;51.030;4.606;2023-04-03T15:49:59;11.00;77.70
43581;DHT22;29175;51.030;4.606;2023-04-03T15:52:25;11.00;80.90
43581;DHT22;29175;51.030;4.606;2023-04-03T15:54:51;11.20;79.20
43581;DHT22;29175;51.030;4.606;2023-04-03T15:57:16;11.20;76.40
43581;DHT22;29175;51.030;4.606;2023-04-03T15:59:42;11.10;77.20
43581;DHT22;29175;51.030;4.606;2023-04-03T16:02:10;11.10;77.40
43581;DHT22;29175;51.030;4.606;2023-04-03T16:04:38;11.30;77.90
43581;DHT22;29175;51.030;4.606;2023-04-03T16:07:04;11.20;78.90
43581;DHT22;29175;51.030;4.606;2023-04-03T16:09:31;10.90;77.50
43581;DHT22;29175;51.030;4.606;2023-04-03T16:11:58;10.70;77.60
43581;DHT22;29175;51.030;4.606;2023-04-03T16:14:24;10.70;79.30
43581;DHT22;29175;51.030;4.606;2023-04-03T16:16:49;11.00;79.30
43581;DHT22;29175;51.030;4.606;2023-04-03T16:19:15;10.70;80.10
43581;DHT22;29175;51.030;4.606;2023-04-03T16:21:41;10.80;81.60
43581;DHT22;29175;51.030;4.606;2023-04-03T16:24:08;11.00;81.90
43581;DHT22;29175;51.030;4.606;2023-04-03T16:26:35;10.80;82.30
43581;DHT22;29175;51.030;4.606;2023-04-03T16:29:01;10.80;81.70
43581;DHT22;29175;51.030;4.606;2023-04-03T16:31:27;10.90;79.80
43581;DHT22;29175;51.030;4.606;2023-04-03T16:33:55;11.10;82.10
43581;DHT22;29175;51.030;4.606;2023-04-03T16:36:21;11.00;82.10
43581;DHT22;29175;51.030;4.606;2023-04-03T16:38:47;10.50;81.50
43581;DHT22;29175;51.030;4.606;2023-04-03T16:41:13;10.50;82.40
43581;DHT22;29175;51.030;4.606;2023-04-03T16:43:39;10.60;82.60
43581;DHT22;29175;51.030;4.606;2023-04-03T16:46:05;10.60;83.30
43581;DHT22;29175;51.030;4.606;2023-04-03T16:48:31;10.70;81.80
43581;DHT22;29175;51.030;4.606;2023-04-03T16:50:57;10.40;83.00
43581;DHT22;29175;51.030;4.606;2023-04-03T16:53:24;10.40;82.90
43581;DHT22;29175;51.030;4.606;2023-04-03T16:55:50;10.50;82.50
43581;DHT22;29175;51.030;4.606;2023-04-03T16:58:16;10.40;83.60
43581;DHT22;29175;51.030;4.606;2023-04-03T17:00:42;10.30;83.30
43581;DHT22;29175;51.030;4.606;2023-04-03T17:03:08;10.30;84.20
43581;DHT22;29175;51.030;4.606;2023-04-03T17:05:34;10.50;83.90
43581;DHT22;29175;51.030;4.606;2023-04-03T17:08:00;10.30;84.30
43581;DHT22;29175;51.030;4.606;2023-04-03T17:10:27;10.10;87.20
43581;DHT22;29175;51.030;4.606;2023-04-03T17:12:53;10.00;85.30
43581;DHT22;29175;51.030;4.606;2023-04-03T17:15:20;10.20;86.50
43581;DHT22;29175;51.030;4.606;2023-04-03T17:17:47;10.30;87.80
43581;DHT22;29175;51.030;4.606;2023-04-03T17:20:13;10.30;84.90
43581;DHT22;29175;51.030;4.606;2023-04-03T17:22:39;9.90;87.00
43581;DHT22;29175;51.030;4.606;2023-04-03T17:25:05;10.10;85.50
43581;DHT22;29175;51.030;4.606;2023-04-03T17:27:31;10.10;85.60
43581;DHT22;29175;51.030;4.606;2023-04-03T17:29:57;10.00;86.30
43581;DHT22;29175;51.030;4.606;2023-04-03T17:32:25;10.10;86.40
43581;DHT22;29175;51.030;4.606;2023-04-03T17:34:50;10.20;85.60
43581;DHT22;29175;51.030;4.606;2023-04-03T17:37:16;10.00;87.20
43581;DHT22;29175;51.030;4.606;2023-04-03T17:39:42;9.90;87.10
43581;DHT22;29175;51.030;4.606;2023-04-03T17:42:08;10.10;85.70
43581;DHT22;29175;51.030;4.606;2023-04-03T17:44:34;9.70;86.90
43581;DHT22;29175;51.030;4.606;2023-04-03T17:47:00;9.80;87.20
43581;DHT22;29175;51.030;4.606;2023-04-03T17:49:25;10.00;86.80
43581;DHT22;29175;51.030;4.606;2023-04-03T17:51:51;10.10;86.20